Time;durP1;ratioP1;P1;durP2;ratioP2;P2;SDS_P1;SDS_P2;PMS_P1;PMS_P2;Temp;Humidity;BMP_temperature;BMP_pressure;BME280_temperature;BME280_humidity;BME280_pressure;Samples;Min_cycle;Max_cycle;Signal;HPM_P1;HPM_P2
2022/12/21 00:00:14;;;;;;;21.70;8.25;;;26.10;2201.60;;;;;;5027381;28;20324;-79
2022/12/21 00:02:40;;;;;;;;;;;26.10;2201.60;;;;;;5038948;28;20121;-80
2022/12/21 00:05:07;;;;;;;20.25;7.85;;;26.10;2201.60;;;;;;5023048;28;19952;-79
2022/12/21 00:07:33;;;;;;;23.30;9.50;;;26.00;2201.60;;;;;;5026224;28;20032;-80
2022/12/21 00:09:59;;;;;;;30.27;10.50;;;26.00;2201.60;;;;;;5028102;28;20018;-79
2022/12/21 00:12:24;;;;;;;;;;;26.20;2201.60;;;;;;5026714;28;20071;-79
2022/12/21 00:14:50;;;;;;;27.35;11.82;;;26.20;2201.60;;;;;;5056750;28;19952;-79
2022/12/21 00:17:16;;;;;;;;;;;26.20;2201.60;;;;;;5027332;28;20033;-79
2022/12/21 00:19:43;;;;;;;18.02;7.85;;;26.20;2201.60;;;;;;5056021;28;20392;-79
2022/12/21 00:22:09;;;;;;;18.75;8.73;;;26.20;2201.60;;;;;;5017970;28;20037;-79
2022/12/21 00:24:35;;;;;;;;;;;26.30;2201.60;;;;;;5015909;28;20116;-81
2022/12/21 00:27:01;;;;;;;20.98;8.15;;;26.30;2201.60;;;;;;5051857;28;19959;-78
2022/12/21 00:29:27;;;;;;;24.65;8.57;;;26.30;2201.60;;;;;;5022022;28;20122;-79
2022/12/21 00:31:53;;;;;;;;;;;26.40;2201.60;;;;;;5024778;28;20112;-79
2022/12/21 00:34:21;;;;;;;23.08;9.88;;;26.40;2201.60;;;;;;5059096;28;20429;-79
2022/12/21 00:36:48;;;;;;;21.05;8.65;;;26.40;2201.60;;;;;;5022052;28;20018;-80
2022/12/21 00:39:16;;;;;;;21.05;9.15;;;26.30;2201.60;;;;;;5023943;28;20034;-79
2022/12/21 00:41:42;;;;;;;20.90;8.90;;;26.30;2201.60;;;;;;5020475;28;20115;-79
2022/12/21 00:44:09;;;;;;;19.33;8.80;;;26.30;2201.60;;;;;;5027708;28;20022;-79
2022/12/21 00:46:35;;;;;;;24.20;9.98;;;26.20;2201.60;;;;;;5022173;28;20021;-79
2022/12/21 00:49:03;;;;;;;18.90;8.10;;;26.20;2201.60;;;;;;5025874;28;20095;-79
2022/12/21 00:51:30;;;;;;;19.35;9.50;;;26.20;2201.60;;;;;;5020972;28;20022;-79
2022/12/21 00:53:57;;;;;;;21.92;9.88;;;26.30;2201.60;;;;;;5026023;28;20046;-79
2022/12/21 00:56:24;;;;;;;24.77;9.57;;;26.30;2201.60;;;;;;5024458;28;20034;-79
2022/12/21 00:58:50;;;;;;;22.02;9.75;;;26.30;2201.60;;;;;;5024582;28;20033;-79
2022/12/21 01:01:23;;;;;;;21.52;9.85;;;26.30;2201.60;;;;;;5023781;28;20029;-79
2022/12/21 01:03:50;;;;;;;24.35;10.25;;;26.30;2201.60;;;;;;5036814;28;20057;-79
2022/12/21 01:06:25;;;;;;;22.30;9.23;;;26.30;2201.60;;;;;;5026327;28;20029;-79
2022/12/21 01:08:51;;;;;;;20.92;8.68;;;26.30;2201.60;;;;;;5023075;28;20034;-80
2022/12/21 01:11:17;;;;;;;;;;;26.40;2201.60;;;;;;5026636;28;20052;-79
2022/12/21 01:13:43;;;;;;;24.88;9.70;;;26.40;2201.60;;;;;;5058035;28;19913;-79
2022/12/21 01:16:38;;;;;;;24.48;10.70;;;26.30;2201.60;;;;;;5058234;28;20018;-79
2022/12/21 01:19:06;;;;;;;19.88;9.35;;;26.50;2201.60;;;;;;5005084;28;20120;-79
2022/12/21 01:21:32;;;;;;;24.10;10.38;;;26.50;2201.60;;;;;;5013135;28;20600;-79
2022/12/21 01:23:58;;;;;;;;;;;26.50;2201.60;;;;;;5013655;28;20077;-79
2022/12/21 01:26:25;;;;;;;16.37;7.67;;;26.40;2201.60;;;;;;5013833;28;19905;-79
2022/12/21 01:28:51;;;;;;;23.90;10.20;;;26.40;2201.60;;;;;;5008521;28;20244;-80
2022/12/21 01:31:17;;;;;;;;;;;26.40;2201.60;;;;;;5006559;28;20026;-80
2022/12/21 01:33:42;;;;;;;27.73;11.80;;;26.40;2201.60;;;;;;5013386;28;20309;-78
2022/12/21 01:36:09;;;;;;;;;;;26.30;2201.60;;;;;;5024338;28;20026;-79
2022/12/21 01:38:36;;;;;;;21.38;8.27;;;26.30;2201.60;;;;;;5013549;28;19920;-79
2022/12/21 01:41:02;;;;;;;22.23;10.07;;;26.30;2201.60;;;;;;5006025;28;20116;-80
2022/12/21 01:43:51;;;;;;;25.02;10.65;;;26.40;2201.60;;;;;;5013824;28;20041;-79
2022/12/21 01:46:41;;;;;;;22.73;10.20;;;26.40;2201.60;;;;;;5007929;28;20041;-79
2022/12/21 01:49:26;;;;;;;25.35;11.15;;;26.40;2201.60;;;;;;5008357;28;20084;-80
2022/12/21 01:52:12;;;;;;;25.30;10.95;;;26.40;2201.60;;;;;;5024207;28;20041;-79
2022/12/21 01:54:49;;;;;;;28.63;10.90;;;26.50;2201.60;;;;;;5008004;28;20033;-79
2022/12/21 01:57:16;;;;;;;24.20;10.23;;;26.30;2201.60;;;;;;5023287;28;20084;-79
2022/12/21 01:59:46;;;;;;;24.58;10.23;;;26.20;2201.60;;;;;;5022617;28;20065;-79
2022/12/21 02:02:22;;;;;;;23.67;10.75;;;26.30;2201.60;;;;;;5025113;28;20026;-79
2022/12/21 02:04:51;;;;;;;28.15;11.50;;;26.30;2201.60;;;;;;5022395;28;20109;-79
2022/12/21 02:07:19;;;;;;;27.58;10.23;;;26.20;2201.60;;;;;;5023264;28;20048;-79
2022/12/21 02:09:44;;;;;;;28.42;11.30;;;26.10;2201.60;;;;;;5024615;28;20036;-79
2022/12/21 02:12:13;;;;;;;;;;;26.10;2201.60;;;;;;5025318;28;20038;-79
2022/12/21 02:14:41;;;;;;;24.73;11.02;;;26.20;2201.60;;;;;;5032938;28;19912;-79
2022/12/21 02:17:06;;;;;;;26.77;12.18;;;26.20;2201.60;;;;;;5032730;28;20025;-79
2022/12/21 02:19:47;;;;;;;;;;;26.10;2201.60;;;;;;5033461;28;20108;-79
2022/12/21 02:22:45;;;;;;;25.15;12.60;;;26.10;2201.60;;;;;;5032929;28;20015;-79
2022/12/21 02:25:41;;;;;;;24.58;9.43;;;26.00;2201.60;;;;;;5027041;28;20040;-79
2022/12/21 02:28:25;;;;;;;20.20;8.30;;;26.10;2201.60;;;;;;5032505;28;20026;-79
2022/12/21 02:31:02;;;;;;;26.20;11.15;;;26.10;2201.60;;;;;;5020862;28;20029;-79
2022/12/21 02:34:00;;;;;;;25.70;12.13;;;26.00;2201.60;;;;;;5021962;28;20025;-79
2022/12/21 02:36:40;;;;;;;24.08;9.77;;;26.10;2201.60;;;;;;5025823;28;20030;-78
2022/12/21 02:39:24;;;;;;;24.15;11.35;;;26.10;2201.60;;;;;;5018557;28;20042;-79
2022/12/21 02:42:08;;;;;;;25.15;11.25;;;26.10;2201.60;;;;;;5023209;28;20034;-79
2022/12/21 02:44:36;;;;;;;28.23;12.00;;;26.10;2201.60;;;;;;5015880;28;20467;-79
2022/12/21 02:47:14;;;;;;;28.58;12.40;;;26.20;2201.60;;;;;;5026443;28;20022;-79
2022/12/21 02:49:58;;;;;;;24.33;10.77;;;26.20;2201.60;;;;;;5024801;28;20022;-80
2022/12/21 02:52:36;;;;;;;23.42;11.43;;;26.20;2201.60;;;;;;5023707;28;20057;-79
2022/12/21 02:55:02;;;;;;;27.23;11.15;;;26.20;2201.60;;;;;;5040249;28;20459;-79
2022/12/21 02:57:35;;;;;;;;;;;26.20;2201.60;;;;;;5028717;28;20029;-79
2022/12/21 03:00:04;;;;;;;28.52;11.05;;;26.30;2201.60;;;;;;5030155;28;20001;-79
2022/12/21 03:02:45;;;;;;;27.17;11.68;;;26.40;2201.60;;;;;;5031093;28;20429;-79
2022/12/21 03:05:33;;;;;;;23.33;9.98;;;26.40;2201.60;;;;;;5039079;28;20095;-79
2022/12/21 03:08:31;;;;;;;25.70;10.25;;;26.30;2201.60;;;;;;5020080;28;20021;-79
2022/12/21 03:11:02;;;;;;;24.85;11.40;;;26.30;2201.60;;;;;;5040813;28;20026;-79
2022/12/21 03:13:33;;;;;;;26.33;11.63;;;26.30;2201.60;;;;;;5023797;28;20045;-79
2022/12/21 03:16:03;;;;;;;22.25;11.32;;;26.30;2201.60;;;;;;5025293;28;20113;-79
2022/12/21 03:18:57;;;;;;;22.98;10.57;;;26.40;2201.60;;;;;;5035443;28;20124;-78
2022/12/21 03:21:37;;;;;;;26.38;11.05;;;26.40;2201.60;;;;;;5036053;28;20101;-79
2022/12/21 03:24:28;;;;;;;25.75;11.27;;;26.40;2201.60;;;;;;5027771;28;20026;-79
2022/12/21 03:27:08;;;;;;;24.38;10.85;;;26.40;2201.60;;;;;;5029109;28;20026;-79
2022/12/21 03:29:56;;;;;;;28.40;12.02;;;26.40;2201.60;;;;;;5021622;28;20036;-79
2022/12/21 03:32:45;;;;;;;24.55;12.20;;;26.50;2201.60;;;;;;5024071;28;20413;-79
2022/12/21 03:35:34;;;;;;;22.67;10.30;;;26.50;2201.60;;;;;;5030211;28;20273;-79
2022/12/21 03:38:04;;;;;;;21.08;10.48;;;26.40;2201.60;;;;;;5007331;28;20486;-79
2022/12/21 03:40:33;;;;;;;31.35;12.98;;;26.40;2201.60;;;;;;5023254;28;20509;-79
2022/12/21 03:43:01;;;;;;;27.83;11.82;;;26.30;2201.60;;;;;;5025135;28;20112;-79
2022/12/21 03:45:34;;;;;;;25.70;11.05;;;26.30;2201.60;;;;;;5009819;28;20038;-79
2022/12/21 03:48:13;;;;;;;32.50;13.63;;;26.20;2201.60;;;;;;5018175;28;20026;-79
2022/12/21 03:50:43;;;;;;;27.35;11.27;;;26.30;2201.60;;;;;;5028368;28;20037;-79
2022/12/21 03:53:38;;;;;;;26.17;11.57;;;26.20;2201.60;;;;;;5008241;28;20081;-79
2022/12/21 03:56:07;;;;;;;35.10;14.50;;;26.30;2201.60;;;;;;5015885;28;20057;-79
2022/12/21 03:58:34;;;;;;;32.20;13.45;;;26.30;2201.60;;;;;;5008199;28;20026;-78
2022/12/21 04:01:18;;;;;;;30.80;12.90;;;26.30;2201.60;;;;;;5022001;28;20025;-79
2022/12/21 04:03:48;;;;;;;27.45;12.43;;;26.20;2201.60;;;;;;5006663;28;20064;-80
2022/12/21 04:06:18;;;;;;;26.65;12.45;;;26.20;2201.60;;;;;;5013902;28;20382;-79
2022/12/21 04:08:45;;;;;;;26.63;11.88;;;26.20;2201.60;;;;;;5023468;28;20042;-79
2022/12/21 04:12:36;;;;;;;25.60;11.75;;;26.20;2201.60;;;;;;5022763;28;20037;-79
2022/12/21 04:14:01;;;;;;;23.70;9.98;;;26.20;2201.60;;;;;;5019160;28;20196;-79
2022/12/21 04:16:27;;;;;;;24.50;11.80;;;26.20;2201.60;;;;;;5023410;28;20199;-79
2022/12/21 04:21:37;;;;;;;25.25;11.38;;;26.20;2201.60;;;;;;5027154;28;20060;-79
2022/12/21 04:29:31;;;;;;;30.52;11.13;;;26.10;2201.60;;;;;;5032974;28;20080;-79
2022/12/21 04:31:56;;;;;;;;;;;26.10;2201.60;;;;;;5026048;28;20433;-79
2022/12/21 04:34:22;;;;;;;27.95;11.40;;;26.10;2201.60;;;;;;5023386;28;19984;-79
2022/12/21 04:39:32;;;;;;;27.90;10.80;;;26.00;2201.60;;;;;;5029197;28;19960;-79
2022/12/21 04:41:58;;;;;;;;;;;26.00;2201.60;;;;;;5015042;28;20030;-79
2022/12/21 04:44:23;;;;;;;24.52;11.38;;;26.00;2201.60;;;;;;5021493;28;19953;-79
2022/12/21 04:46:49;;;;;;;;;;;26.00;2201.60;;;;;;5027986;28;20025;-78
2022/12/21 04:49:15;;;;;;;27.05;11.52;;;26.10;2201.60;;;;;;5028584;28;19905;-79
2022/12/21 04:51:40;;;;;;;;;;;26.10;2201.60;;;;;;5027995;28;20026;-79
2022/12/21 04:54:06;;;;;;;28.48;11.07;;;26.10;2201.60;;;;;;5028367;28;19917;-79
2022/12/21 04:56:32;;;;;;;;;;;26.10;2201.60;;;;;;5023264;28;20022;-79
2022/12/21 04:58:58;;;;;;;26.70;9.65;;;26.10;2201.60;;;;;;5025942;28;19909;-78
2022/12/21 05:01:23;;;;;;;;;;;26.00;2201.60;;;;;;5027783;28;20021;-79
2022/12/21 05:03:50;;;;;;;30.23;12.30;;;26.10;2201.60;;;;;;5021852;28;19905;-79
2022/12/21 05:06:17;;;;;;;27.95;12.20;;;26.10;2201.60;;;;;;5027152;28;20045;-79
2022/12/21 05:08:43;;;;;;;26.90;13.63;;;26.10;2201.60;;;;;;5042373;28;20478;-79
2022/12/21 05:11:13;;;;;;;;;;;26.10;2201.60;;;;;;5028514;28;20022;-79
2022/12/21 05:13:40;;;;;;;26.23;11.35;;;26.10;2201.60;;;;;;5030385;28;20379;-79
2022/12/21 05:16:10;;;;;;;24.50;10.95;;;26.30;2201.60;;;;;;5027340;28;20087;-79
2022/12/21 05:18:36;;;;;;;26.77;11.05;;;26.10;2201.60;;;;;;5024231;28;20029;-79
2022/12/21 05:21:02;;;;;;;;;;;26.10;2201.60;;;;;;5027412;28;20018;-79
2022/12/21 05:23:27;;;;;;;28.10;12.15;;;26.10;2201.60;;;;;;5024097;28;19998;-79
2022/12/21 05:25:53;;;;;;;;;;;26.10;2201.60;;;;;;5021104;28;20056;-79
2022/12/21 05:28:19;;;;;;;34.40;14.73;;;26.10;2201.60;;;;;;5024786;28;19920;-78
2022/12/21 05:30:44;;;;;;;;;;;26.00;2201.60;;;;;;5024787;28;20111;-79
2022/12/21 05:33:10;;;;;;;38.78;13.38;;;26.10;2201.60;;;;;;5028198;28;20247;-79
2022/12/21 05:35:39;;;;;;;;;;;26.00;2201.60;;;;;;5022787;28;20041;-79
2022/12/21 05:38:06;;;;;;;30.75;12.07;;;26.00;2201.60;;;;;;5020776;28;19913;-79
2022/12/21 05:40:33;;;;;;;28.70;12.68;;;26.00;2201.60;;;;;;5021309;28;20018;-79
2022/12/21 05:42:59;;;;;;;28.90;13.45;;;26.00;2201.60;;;;;;5027825;28;20032;-79
2022/12/21 05:45:25;;;;;;;31.10;12.27;;;25.90;2201.60;;;;;;5030181;28;20454;-79
2022/12/21 05:47:50;;;;;;;;;;;25.90;2201.60;;;;;;5022169;28;20076;-79
2022/12/21 05:50:16;;;;;;;28.02;12.32;;;26.00;2201.60;;;;;;5032681;28;19905;-79
2022/12/21 05:52:42;;;;;;;;;;;26.00;2201.60;;;;;;5018728;28;20050;-79
2022/12/21 05:55:08;;;;;;;32.55;12.80;;;26.00;2201.60;;;;;;5022825;28;20273;-79
2022/12/21 05:57:33;;;;;;;;;;;26.00;2201.60;;;;;;5021893;28;20053;-79
2022/12/21 05:59:59;;;;;;;28.02;12.35;;;26.00;2201.60;;;;;;5025139;28;19944;-79
2022/12/21 06:02:24;;;;;;;;;;;26.00;2201.60;;;;;;5021701;28;20477;-79
2022/12/21 06:04:50;;;;;;;27.75;12.65;;;26.10;2201.60;;;;;;5022893;28;19912;-79
2022/12/21 06:07:16;;;;;;;;;;;26.00;2201.60;;;;;;5028586;28;20075;-79
2022/12/21 06:09:42;;;;;;;25.67;12.38;;;26.00;2201.60;;;;;;5029512;28;19914;-79
2022/12/21 06:12:07;;;;;;;;;;;26.00;2201.60;;;;;;5028275;28;20029;-79
2022/12/21 06:14:33;;;;;;;30.40;12.98;;;26.00;2201.60;;;;;;5019856;28;20342;-79
2022/12/21 06:16:59;;;;;;;;;;;26.00;2201.60;;;;;;5018392;28;20030;-79
2022/12/21 06:19:25;;;;;;;33.33;14.57;;;26.00;2201.60;;;;;;5026094;28;20375;-79
2022/12/21 06:21:51;;;;;;;36.60;12.70;;;26.00;2201.60;;;;;;5024588;28;20046;-79
2022/12/21 06:24:17;;;;;;;;;;;25.90;2201.60;;;;;;5022276;28;20030;-83
2022/12/21 06:26:42;;;;;;;28.67;12.45;;;26.00;2201.60;;;;;;5020391;28;20000;-79
2022/12/21 06:29:08;;;;;;;;;;;26.00;2201.60;;;;;;5030751;28;20056;-79
2022/12/21 06:31:34;;;;;;;45.20;20.45;;;25.90;2201.60;;;;;;5026461;28;19927;-79
2022/12/21 06:33:59;;;;;;;;;;;26.00;2201.60;;;;;;5029529;28;20034;-79
2022/12/21 06:36:25;;;;;;;25.27;12.70;;;26.00;2201.60;;;;;;5031795;28;19905;-78
2022/12/21 06:38:50;;;;;;;;;;;26.00;2201.60;;;;;;5031404;28;20056;-79
2022/12/21 06:41:18;;;;;;;31.92;14.02;;;26.00;2201.60;;;;;;5024108;28;19949;-80
2022/12/21 06:43:45;;;;;;;31.25;14.60;;;26.10;2201.60;;;;;;5022802;28;20481;-80
2022/12/21 06:46:16;;;;;;;28.20;12.65;;;26.10;2201.60;;;;;;5019576;28;20060;-79
2022/12/21 06:48:42;;;;;;;27.98;13.45;;;26.20;2201.60;;;;;;5025199;28;20029;-79
2022/12/21 06:51:17;;;;;;;27.88;12.65;;;26.30;2201.60;;;;;;5022811;28;20033;-80
2022/12/21 06:53:44;;;;;;;28.33;13.00;;;26.40;2201.60;;;;;;5028483;28;20046;-78
2022/12/21 06:56:22;;;;;;;25.13;12.43;;;26.50;2201.60;;;;;;5032517;28;20030;-78
2022/12/21 06:58:49;;;;;;;30.75;13.50;;;26.50;2201.60;;;;;;5022760;28;20481;-75
2022/12/21 07:01:24;;;;;;;36.15;13.20;;;51.20;2227.20;;;;;;5022348;28;20025;-79
2022/12/21 07:03:50;;;;;;;45.47;14.85;;;51.30;2227.20;;;;;;5023619;28;20032;-77
2022/12/21 07:06:18;;;;;;;35.63;15.63;;;51.30;2227.20;;;;;;5017939;28;20022;-79
2022/12/21 07:08:44;;;;;;;30.45;13.90;;;51.40;2227.20;;;;;;5023168;28;20025;-78
2022/12/21 07:11:13;;;;;;;37.78;16.08;;;51.20;2227.20;;;;;;5021955;28;20040;-78
2022/12/21 07:13:40;;;;;;;36.35;15.48;;;51.40;2227.20;;;;;;5018796;28;20041;-79
2022/12/21 07:16:07;;;;;;;32.05;14.38;;;51.40;2227.20;;;;;;5049959;28;20026;-79
2022/12/21 07:18:36;;;;;;;32.22;14.35;;;51.40;2227.20;;;;;;5055062;28;20026;-78
2022/12/21 07:21:05;;;;;;;33.40;14.02;;;51.50;2227.20;;;;;;5026932;28;20029;-79
2022/12/21 07:23:36;;;;;;;29.30;12.32;;;51.50;2227.20;;;;;;5021589;28;20037;-79
2022/12/21 07:26:05;;;;;;;29.05;13.00;;;51.60;2227.20;;;;;;5028868;28;20025;-82
2022/12/21 07:28:31;;;;;;;25.63;12.27;;;51.60;2227.20;;;;;;5029619;28;20112;-78
2022/12/21 07:31:10;;;;;;;;;;;51.70;2227.20;;;;;;5028446;28;20128;-85
2022/12/21 07:33:38;;;;;;;26.25;12.48;;;51.70;2227.20;;;;;;5021168;28;19917;-80
2022/12/21 07:36:05;;;;;;;24.80;11.73;;;51.80;2227.20;;;;;;5017666;28;20087;-78
2022/12/21 07:38:33;;;;;;;34.88;12.18;;;51.90;2227.20;;;;;;5018351;28;20065;-80
2022/12/21 07:41:00;;;;;;;24.23;11.52;;;52.00;2227.20;;;;;;5021333;28;20600;-76
2022/12/21 07:43:27;;;;;;;28.38;13.95;;;52.00;2227.20;;;;;;5016229;28;20026;-81
2022/12/21 07:45:52;;;;;;;31.38;13.98;;;52.10;2227.20;;;;;;5029574;28;20025;-79
2022/12/21 07:48:18;;;;;;;;;;;52.10;2227.20;;;;;;5026634;28;20033;-79
2022/12/21 07:50:48;;;;;;;32.35;13.32;;;52.10;2227.20;;;;;;5057335;28;19983;-79
2022/12/21 07:53:15;;;;;;;26.67;13.73;;;52.10;2227.20;;;;;;5017680;28;20518;-80
2022/12/21 07:55:41;;;;;;;28.92;14.13;;;76.90;2227.20;;;;;;5027426;28;20030;-80
2022/12/21 07:58:07;;;;;;;;;;;76.90;2227.20;;;;;;5025119;28;20029;-80
2022/12/21 08:00:32;;;;;;;29.13;12.90;;;77.00;2227.20;;;;;;5055445;28;20281;-79
2022/12/21 08:02:58;;;;;;;;;;;77.10;2227.20;;;;;;5025881;28;20028;-79
2022/12/21 08:05:24;;;;;;;32.38;13.55;;;77.10;2227.20;;;;;;5040388;28;19905;-83
2022/12/21 08:07:49;;;;;;;;;;;77.20;2227.20;;;;;;5027868;28;20113;-80
2022/12/21 08:10:16;;;;;;;32.17;14.82;;;77.10;2227.20;;;;;;5027231;28;19905;-79
2022/12/21 08:12:41;;;;;;;34.30;14.48;;;77.20;2227.20;;;;;;5020940;28;20033;-79
2022/12/21 08:15:07;;;;;;;;;;;77.30;2227.20;;;;;;5031168;28;20043;-79
2022/12/21 08:17:33;;;;;;;35.75;16.42;;;77.30;2227.20;;;;;;5062983;28;19905;-80
2022/12/21 08:19:59;;;;;;;;;;;77.40;2227.20;;;;;;5030136;28;20351;-84
2022/12/21 08:22:25;;;;;;;37.72;16.13;;;77.40;2227.20;;;;;;5020057;28;19913;-81
2022/12/21 08:24:51;;;;;;;;;;;77.40;2227.20;;;;;;5032666;28;20065;-80
2022/12/21 08:27:17;;;;;;;32.00;15.15;;;77.50;2227.20;;;;;;5052636;28;20000;-81
2022/12/21 08:29:43;;;;;;;;;;;77.50;2227.20;;;;;;5022812;28;20083;-82
2022/12/21 08:32:09;;;;;;;30.85;15.00;;;77.60;2227.20;;;;;;5050832;28;20395;-81
2022/12/21 08:34:34;;;;;;;;;;;77.60;2227.20;;;;;;5028695;28;20034;-80
2022/12/21 08:37:00;;;;;;;38.28;14.95;;;77.60;2227.20;;;;;;5034650;28;20412;-81
2022/12/21 08:39:26;;;;;;;;;;;77.60;2227.20;;;;;;5030000;28;20018;-82
2022/12/21 08:41:52;;;;;;;36.20;16.27;;;77.70;2227.20;;;;;;5056484;28;19931;-82
2022/12/21 08:44:18;;;;;;;;;;;77.70;2227.20;;;;;;5025364;28;20030;-80
2022/12/21 08:46:44;;;;;;;30.55;12.77;;;77.70;2227.20;;;;;;5024998;28;19906;-79
2022/12/21 08:49:09;;;;;;;;;;;102.40;2227.20;;;;;;5024512;28;20544;-79
2022/12/21 08:51:35;;;;;;;33.72;15.70;;;102.40;2227.20;;;;;;5025565;28;19921;-80
2022/12/21 08:54:01;;;;;;;;;;;102.50;2227.20;;;;;;5025480;28;20498;-81
2022/12/21 08:56:27;;;;;;;37.10;16.27;;;102.50;2227.20;;;;;;5054690;28;19951;-82
2022/12/21 08:58:52;;;;;;;;;;;102.60;2227.20;;;;;;5027952;28;20113;-83
2022/12/21 09:01:20;;;;;;;36.90;16.98;;;102.60;2227.20;;;;;;5024967;28;20300;-80
2022/12/21 09:03:46;;;;;;;38.30;18.60;;;102.70;2227.20;;;;;;5021866;28;20041;-79
2022/12/21 09:06:12;;;;;;;;;;;102.80;2227.20;;;;;;5024945;28;20470;-86
2022/12/21 09:08:39;;;;;;;43.53;19.77;;;102.90;2227.20;;;;;;5018915;28;19907;-80
2022/12/21 09:11:08;;;;;;;43.38;18.50;;;103.00;2227.20;;;;;;5023258;28;20026;-79
2022/12/21 09:13:35;;;;;;;86.25;31.52;;;103.00;2227.20;;;;;;5026628;28;20033;-81
2022/12/21 09:16:01;;;;;;;64.28;24.73;;;103.00;2227.20;;;;;;5027496;28;20063;-86
2022/12/21 09:18:27;;;;;;;;;;;103.10;2227.20;;;;;;5027343;28;20429;-82
2022/12/21 09:20:55;;;;;;;58.83;21.45;;;103.20;2227.20;;;;;;5024806;28;20424;-80
2022/12/21 09:23:21;;;;;;;49.08;22.73;;;103.30;2227.20;;;;;;5021765;28;20039;-84
2022/12/21 09:25:50;;;;;;;51.17;22.48;;;103.30;2227.20;;;;;;5026151;28;20021;-81
2022/12/21 09:28:16;;;;;;;45.60;22.27;;;128.00;2252.80;;;;;;5025008;28;20426;-78
2022/12/21 09:30:41;;;;;;;;;;;128.00;2252.80;;;;;;5032915;28;20473;-82
2022/12/21 09:33:08;;;;;;;50.45;22.05;;;128.20;2252.80;;;;;;5024906;28;19913;-83
2022/12/21 09:35:37;;;;;;;49.20;22.13;;;128.40;2252.80;;;;;;5020146;28;20075;-82
2022/12/21 09:38:03;;;;;;;49.35;21.92;;;128.50;2252.80;;;;;;5014736;28;20030;-79
2022/12/21 09:40:30;;;;;;;;;;;128.60;2252.80;;;;;;5019209;28;20026;-78
2022/12/21 09:43:25;;;;;;;36.50;18.35;;;128.70;2252.80;;;;;;5037013;28;19906;-80
2022/12/21 09:46:24;;;;;;;44.30;21.55;;;153.60;2252.80;;;;;;5052610;28;20033;-84
2022/12/21 09:48:56;;;;;;;37.90;18.98;;;153.70;2252.80;;;;;;5007483;28;20026;-78
2022/12/21 09:51:27;;;;;;;43.78;19.50;;;153.70;2252.80;;;;;;4995184;28;20035;-84
2022/12/21 09:53:59;;;;;;;39.72;18.98;;;153.80;2252.80;;;;;;4979874;28;20050;-79
2022/12/21 09:56:27;;;;;;;41.78;20.52;;;153.80;2252.80;;;;;;4987120;28;20483;-79
2022/12/21 09:58:54;;;;;;;43.47;21.42;;;154.10;2252.80;;;;;;5005083;28;20096;-79
2022/12/21 10:01:57;;;;;;;53.80;25.08;;;154.40;2252.80;;;;;;4993552;28;20025;-87
2022/12/21 10:04:38;;;;;;;44.42;22.30;;;154.50;2252.80;;;;;;4995131;28;20089;-79
2022/12/21 10:07:12;;;;;;;50.75;23.63;;;179.30;2252.80;;;;;;5020409;28;20105;-80
2022/12/21 10:09:54;;;;;;;53.92;25.17;;;179.30;2252.80;;;;;;5008027;28;20030;-81
2022/12/21 10:12:29;;;;;;;53.03;24.38;;;179.30;2252.80;;;;;;5003100;28;20073;-82
2022/12/21 10:15:04;;;;;;;46.38;22.98;;;179.50;2252.80;;;;;;5016040;28;20021;-78
2022/12/21 10:17:48;;;;;;;36.47;18.52;;;179.60;2252.80;;;;;;4998476;28;20031;-80
2022/12/21 10:20:22;;;;;;;40.47;19.85;;;204.80;2252.80;;;;;;4993978;28;20018;-84
2022/12/21 10:22:54;;;;;;;42.78;21.75;;;205.20;2252.80;;;;;;5009246;28;20034;-82
2022/12/21 10:25:25;;;;;;;42.60;21.80;;;205.20;2252.80;;;;;;5058480;28;20034;-84
2022/12/21 10:28:01;;;;;;;45.30;23.90;;;205.00;2252.80;;;;;;5027638;28;20148;-83
2022/12/21 10:30:30;;;;;;;38.63;16.33;;;205.40;2252.80;;;;;;5022612;28;20026;-85
2022/12/21 10:32:59;;;;;;;46.08;22.13;;;205.50;2252.80;;;;;;5020902;28;20586;-86
2022/12/21 10:35:38;;;;;;;39.75;21.05;;;205.50;2252.80;;;;;;5022947;28;20014;-85
2022/12/21 10:38:13;;;;;;;45.33;22.35;;;205.70;2252.80;;;;;;5020777;28;20026;-81
2022/12/21 10:40:41;;;;;;;41.95;23.20;;;205.70;2252.80;;;;;;5030535;28;20025;-84
2022/12/21 10:43:10;;;;;;;61.90;25.27;;;230.40;2252.80;;;;;;5023812;28;20029;-79
2022/12/21 10:45:36;;;;;;;41.45;22.23;;;205.70;2252.80;;;;;;5026606;28;20021;-81
2022/12/21 10:48:02;;;;;;;;;;;205.50;2252.80;;;;;;5023666;28;20508;-80
2022/12/21 10:50:31;;;;;;;48.60;23.00;;;205.50;2252.80;;;;;;5026891;28;20288;-81
2022/12/21 10:52:59;;;;;;;43.42;20.25;;;205.40;2252.80;;;;;;5020737;28;20045;-80
2022/12/21 10:55:32;;;;;;;50.95;22.58;;;205.60;2252.80;;;;;;5038363;28;20053;-82
2022/12/21 10:58:21;;;;;;;45.03;23.38;;;205.50;2252.80;;;;;;5026462;28;20041;-80
2022/12/21 11:01:00;;;;;;;44.95;21.45;;;205.60;2252.80;;;;;;5027016;28;20022;-82
2022/12/21 11:03:30;;;;;;;44.85;23.42;;;205.70;2252.80;;;;;;5023381;28;20026;-84
2022/12/21 11:05:57;;;;;;;48.78;24.50;;;230.40;2252.80;;;;;;5024360;28;20072;-81
2022/12/21 11:08:31;;;;;;;42.40;21.08;;;230.40;2252.80;;;;;;5031159;28;20061;-83
2022/12/21 11:11:00;;;;;;;48.40;24.88;;;230.50;2252.80;;;;;;5029135;28;20156;-82
2022/12/21 11:13:29;;;;;;;48.45;22.60;;;230.50;2252.80;;;;;;5024378;28;20048;-82
2022/12/21 11:16:18;;;;;;;41.75;21.85;;;230.40;2252.80;;;;;;5021227;28;20026;-79
2022/12/21 11:18:49;;;;;;;36.38;20.50;;;205.70;2252.80;;;;;;5027165;28;20466;-80
2022/12/21 11:21:30;;;;;;;47.28;24.52;;;230.50;2252.80;;;;;;5020957;28;20025;-79
2022/12/21 11:23:59;;;;;;;42.10;21.98;;;205.70;2252.80;;;;;;5035787;28;20030;-81
2022/12/21 11:26:32;;;;;;;43.28;23.05;;;230.40;2252.80;;;;;;5027638;28;20069;-81
2022/12/21 11:29:06;;;;;;;45.03;22.58;;;230.70;2252.80;;;;;;5018215;28;20034;-81
2022/12/21 11:31:35;;;;;;;50.13;25.17;;;205.70;2252.80;;;;;;5030042;28;20072;-81
2022/12/21 11:34:01;;;;;;;41.10;22.58;;;230.40;2252.80;;;;;;5025820;28;20077;-80
2022/12/21 11:36:26;;;;;;;;;;;230.40;2252.80;;;;;;5029739;28;20057;-80
2022/12/21 11:38:52;;;;;;;71.95;27.23;;;205.70;2252.80;;;;;;5027463;28;19963;-80
2022/12/21 11:41:26;;;;;;;;;;;205.60;2252.80;;;;;;5027973;28;20092;-78
2022/12/21 11:43:53;;;;;;;54.00;24.40;;;205.60;2252.80;;;;;;5027257;28;19913;-80
2022/12/21 11:46:35;;;;;;;47.10;24.02;;;205.60;2252.80;;;;;;5030924;28;20061;-80
2022/12/21 11:49:36;;;;;;;46.40;22.67;;;205.70;2252.80;;;;;;5028362;28;20485;-84
2022/12/21 11:52:21;;;;;;;47.67;24.63;;;205.70;2252.80;;;;;;5042829;28;20091;-79
2022/12/21 11:55:02;;;;;;;47.55;23.67;;;205.70;2252.80;;;;;;5063817;28;20033;-81
2022/12/21 11:57:33;;;;;;;47.38;24.35;;;205.70;2252.80;;;;;;5028355;28;20026;-81
2022/12/21 12:00:03;;;;;;;46.42;23.92;;;230.50;2252.80;;;;;;5032569;28;20029;-81
2022/12/21 12:03:06;;;;;;;57.92;27.08;;;230.50;2252.80;;;;;;5029977;28;20029;-79
2022/12/21 12:05:35;;;;;;;57.03;28.08;;;230.50;2252.80;;;;;;5040676;28;20117;-79
2022/12/21 12:08:08;;;;;;;52.92;25.35;;;205.50;2252.80;;;;;;5030273;28;20030;-81
2022/12/21 12:10:53;;;;;;;49.67;26.52;;;205.40;2252.80;;;;;;5030869;28;20021;-81
2022/12/21 12:13:27;;;;;;;48.60;26.17;;;205.20;2252.80;;;;;;5030646;28;20037;-80
2022/12/21 12:16:16;;;;;;;50.40;27.45;;;205.10;2252.80;;;;;;5028770;28;20054;-79
2022/12/21 12:18:48;;;;;;;59.97;29.15;;;205.10;2252.80;;;;;;5016280;28;20052;-81
2022/12/21 12:21:51;;;;;;;62.60;30.20;;;205.20;2252.80;;;;;;5039636;28;20030;-80
2022/12/21 12:24:17;;;;;;;51.80;25.38;;;205.30;2252.80;;;;;;5028192;28;20152;-79
2022/12/21 12:26:57;;;;;;;;;;;205.20;2252.80;;;;;;5030810;28;20049;-80
2022/12/21 12:29:35;;;;;;;44.20;24.88;;;205.40;2252.80;;;;;;5018977;28;19915;-80
2022/12/21 12:32:12;;;;;;;52.45;27.45;;;205.30;2252.80;;;;;;5022312;28;20029;-79
2022/12/21 12:34:56;;;;;;;54.25;26.17;;;205.40;2252.80;;;;;;5041533;28;20073;-79
2022/12/21 12:37:32;;;;;;;53.30;28.13;;;205.30;2252.80;;;;;;5043596;28;20045;-80
2022/12/21 12:40:28;;;;;;;47.00;24.40;;;205.20;2252.80;;;;;;5032307;28;20021;-79
2022/12/21 12:43:07;;;;;;;52.70;25.10;;;205.20;2252.80;;;;;;5029249;28;20041;-79
2022/12/21 12:45:42;;;;;;;58.58;27.70;;;205.20;2252.80;;;;;;5025505;28;20030;-83
2022/12/21 12:48:44;;;;;;;50.42;28.17;;;205.20;2252.80;;;;;;5039560;28;20053;-81
2022/12/21 12:51:22;;;;;;;56.58;27.75;;;205.10;2252.80;;;;;;5022272;28;20018;-81
2022/12/21 12:54:06;;;;;;;62.10;29.60;;;205.20;2252.80;;;;;;5021592;28;20563;-82